createdAt,value
2023-05-11T00:02:27.057Z,11.80
2023-05-11T00:04:56.062Z,11.57
2023-05-11T00:07:25.560Z,13.63
2023-05-11T00:09:53.744Z,13.37
2023-05-11T00:12:21.986Z,15.23
2023-05-11T00:14:50.221Z,15.10
2023-05-11T00:17:20.685Z,14.13
2023-05-11T00:19:49.267Z,14.87
2023-05-11T00:22:17.446Z,14.97
2023-05-11T00:24:46.965Z,15.37
2023-05-11T00:27:15.376Z,15.07
2023-05-11T00:29:43.557Z,14.53
2023-05-11T00:32:11.919Z,14.60
2023-05-11T00:34:40.097Z,15.40
2023-05-11T00:37:08.653Z,14.20
2023-05-11T00:39:40.417Z,15.00
2023-05-11T00:42:10.052Z,14.40
2023-05-11T00:44:38.272Z,13.80
2023-05-11T00:47:06.491Z,13.80
2023-05-11T00:49:34.663Z,14.90
2023-05-11T00:52:03.847Z,12.30
2023-05-11T00:54:32.538Z,12.10
2023-05-11T00:57:01.287Z,13.47
2023-05-11T00:59:31.069Z,14.70
2023-05-11T01:01:59.599Z,14.80
2023-05-11T01:04:28.030Z,13.80
2023-05-11T01:07:00.046Z,14.57
2023-05-11T01:09:32.176Z,14.80
2023-05-11T01:12:05.621Z,15.83
2023-05-11T01:14:36.820Z,17.10
2023-05-11T01:17:07.701Z,17.50
2023-05-11T01:19:43.185Z,17.50
2023-05-11T01:22:17.502Z,18.10
2023-05-11T01:24:55.617Z,18.47
2023-05-11T01:27:38.166Z,17.43
2023-05-11T01:30:24.901Z,16.63
2023-05-11T01:32:56.455Z,17.33
2023-05-11T01:35:26.732Z,18.40
2023-05-11T01:37:57.021Z,17.17
2023-05-11T01:40:26.462Z,17.03
2023-05-11T01:43:00.380Z,16.33
2023-05-11T01:45:29.781Z,16.97
2023-05-11T01:47:59.810Z,16.40
2023-05-11T01:50:28.422Z,16.27
2023-05-11T01:52:56.741Z,17.73
2023-05-11T01:55:25.562Z,15.87
2023-05-11T01:57:54.892Z,17.27
2023-05-11T02:00:23.325Z,17.30
2023-05-11T02:02:52.152Z,17.20
2023-05-11T02:05:23.862Z,16.33
2023-05-11T02:07:54.473Z,17.27
2023-05-11T02:10:23.735Z,16.73
2023-05-11T02:12:53.795Z,17.70
2023-05-11T02:15:23.325Z,17.23
2023-05-11T02:17:52.983Z,16.70
2023-05-11T02:20:22.765Z,15.93
2023-05-11T02:22:51.669Z,16.10
2023-05-11T02:25:20.169Z,16.00
2023-05-11T02:27:48.358Z,15.97
2023-05-11T02:30:16.720Z,16.37
2023-05-11T02:32:48.750Z,17.37
2023-05-11T02:35:18.756Z,16.03
2023-05-11T02:37:49.943Z,15.83
2023-05-11T02:40:18.734Z,16.33
2023-05-11T02:42:48.097Z,17.40
2023-05-11T02:45:17.323Z,17.27
2023-05-11T02:47:47.568Z,17.63
2023-05-11T02:50:16.712Z,17.10
2023-05-11T02:52:46.659Z,17.27
2023-05-11T02:55:17.672Z,18.20
2023-05-11T02:57:46.122Z,18.67
2023-05-11T03:00:14.902Z,17.03
2023-05-11T03:02:43.152Z,18.27
2023-05-11T03:05:11.461Z,19.70
2023-05-11T03:07:39.658Z,19.47
2023-05-11T03:10:09.189Z,20.60
2023-05-11T03:12:39.147Z,20.67
2023-05-11T03:15:08.671Z,19.97
2023-05-11T03:17:37.249Z,21.17
2023-05-11T03:20:06.058Z,20.10
2023-05-11T03:22:34.274Z,21.23
2023-05-11T03:25:04.400Z,22.60
2023-05-11T03:27:33.600Z,21.10
2023-05-11T03:30:04.691Z,21.30
2023-05-11T03:32:32.856Z,22.03
2023-05-11T03:35:01.244Z,21.67
2023-05-11T03:37:30.479Z,21.13
2023-05-11T03:39:59.698Z,21.80
2023-05-11T03:42:28.394Z,21.23
2023-05-11T03:44:59.625Z,22.03
2023-05-11T03:47:29.374Z,22.80
2023-05-11T03:49:57.885Z,22.53
2023-05-11T03:52:26.227Z,22.70
2023-05-11T03:54:54.460Z,22.47
2023-05-11T03:57:22.625Z,22.73
2023-05-11T03:59:50.908Z,25.87
2023-05-11T04:02:19.328Z,25.33
2023-05-11T04:04:49.050Z,25.07
2023-05-11T04:07:17.355Z,26.13
2023-05-11T04:09:45.567Z,27.93
2023-05-11T04:12:13.769Z,28.50
2023-05-11T04:14:41.933Z,28.27
2023-05-11T04:17:10.233Z,28.87
2023-05-11T04:19:38.389Z,29.40
2023-05-11T04:22:07.896Z,30.67
2023-05-11T04:24:36.010Z,31.03
2023-05-11T04:27:04.172Z,30.73
2023-05-11T04:29:32.392Z,31.60
2023-05-11T04:32:00.659Z,32.27
2023-05-11T04:34:28.919Z,32.30
2023-05-11T04:36:57.172Z,35.47
2023-05-11T04:39:26.648Z,32.80
2023-05-11T04:41:54.818Z,34.03
2023-05-11T04:44:22.995Z,36.20
2023-05-11T04:46:51.198Z,35.20
2023-05-11T04:49:19.373Z,36.73
2023-05-11T04:51:47.531Z,37.37
2023-05-11T04:54:15.659Z,34.13
2023-05-11T04:56:45.277Z,36.43
2023-05-11T04:59:13.456Z,39.43
2023-05-11T05:01:41.685Z,36.43
2023-05-11T05:04:09.953Z,39.27
2023-05-11T05:06:38.312Z,37.80
2023-05-11T05:09:06.896Z,36.77
2023-05-11T05:11:35.289Z,36.37
2023-05-11T05:14:04.808Z,33.83
2023-05-11T05:16:32.962Z,36.70
2023-05-11T05:19:01.195Z,40.93
2023-05-11T05:21:29.437Z,38.80
2023-05-11T05:23:57.658Z,40.07
2023-05-11T05:26:25.865Z,38.67
2023-05-11T05:28:54.028Z,36.23
2023-05-11T05:31:23.650Z,39.60
2023-05-11T05:33:51.859Z,36.10
2023-05-11T05:36:22.422Z,34.90
2023-05-11T05:38:50.838Z,36.03
2023-05-11T05:41:18.989Z,37.20
2023-05-11T05:43:47.211Z,39.40
2023-05-11T05:46:15.393Z,44.30
2023-05-11T05:48:45.039Z,40.90
2023-05-11T05:51:13.408Z,46.67
2023-05-11T05:53:41.626Z,43.17
2023-05-11T05:56:10.131Z,46.97
2023-05-11T05:58:38.307Z,47.37
2023-05-11T06:01:06.635Z,61.00
2023-05-11T06:03:34.874Z,56.27
2023-05-11T06:06:04.577Z,64.13
2023-05-11T06:08:32.744Z,57.27
2023-05-11T06:11:00.997Z,69.67
2023-05-11T06:13:29.181Z,61.63
2023-05-11T06:15:57.388Z,52.30
2023-05-11T06:18:25.585Z,49.70
2023-05-11T06:20:53.768Z,46.97
2023-05-11T06:23:23.288Z,55.13
2023-05-11T06:25:51.465Z,57.83
2023-05-11T06:28:19.574Z,54.13
2023-05-11T06:30:47.672Z,50.47
2023-05-11T06:33:15.884Z,49.37
2023-05-11T06:35:44.015Z,41.60
2023-05-11T06:38:12.165Z,44.93
2023-05-11T06:40:41.728Z,49.93
2023-05-11T06:43:09.858Z,51.50
2023-05-11T06:45:38.170Z,48.83
2023-05-11T06:48:06.664Z,50.03
2023-05-11T06:50:34.879Z,39.97
2023-05-11T06:53:03.075Z,38.17
2023-05-11T06:55:31.318Z,33.73
2023-05-11T06:58:00.911Z,31.20
2023-05-11T07:00:29.168Z,36.23
2023-05-11T07:02:57.358Z,38.57
2023-05-11T07:05:25.516Z,39.10
2023-05-11T07:07:53.730Z,34.50
2023-05-11T07:10:22.003Z,34.83
2023-05-11T07:12:50.693Z,35.93
2023-05-11T07:15:20.790Z,36.47
2023-05-11T07:17:49.780Z,37.00
2023-05-11T07:20:18.431Z,30.37
2023-05-11T07:22:46.723Z,29.27
2023-05-11T07:25:14.853Z,33.53
2023-05-11T07:27:43.014Z,30.53
2023-05-11T07:30:11.641Z,28.77
2023-05-11T07:32:41.194Z,29.20
2023-05-11T07:35:09.688Z,25.20
2023-05-11T07:37:37.910Z,26.30
2023-05-11T07:40:06.707Z,25.77
2023-05-11T07:42:34.834Z,22.33
2023-05-11T07:45:03.171Z,20.87
2023-05-11T07:47:31.354Z,19.73
2023-05-11T07:50:00.984Z,18.90
2023-05-11T07:52:29.129Z,17.97
2023-05-11T07:54:57.274Z,15.50
2023-05-11T07:57:25.485Z,17.03
2023-05-11T07:59:53.676Z,17.93
2023-05-11T08:02:21.850Z,17.90
2023-05-11T08:04:50.219Z,18.70
2023-05-11T08:07:19.811Z,17.80
2023-05-11T08:09:48.136Z,16.43
2023-05-11T08:12:16.525Z,18.03
2023-05-11T08:14:44.741Z,18.10
2023-05-11T08:17:12.934Z,19.73
2023-05-11T08:19:41.097Z,20.57
2023-05-11T08:22:09.258Z,20.03
2023-05-11T08:24:38.764Z,20.83
2023-05-11T08:27:07.069Z,18.43
2023-05-11T08:29:35.279Z,17.60
2023-05-11T08:32:03.495Z,18.20
2023-05-11T08:34:31.698Z,17.70
2023-05-11T08:37:01.676Z,16.87
2023-05-11T08:39:43.783Z,15.87
2023-05-11T08:42:17.293Z,16.33
2023-05-11T08:44:45.869Z,18.10
2023-05-11T08:49:45.359Z,17.23
2023-05-11T08:52:14.019Z,16.80
2023-05-11T08:54:42.133Z,16.50
2023-05-11T08:57:10.439Z,16.27
2023-05-11T08:59:40.171Z,15.90
2023-05-11T09:02:08.627Z,15.00
2023-05-11T09:04:38.176Z,14.53
2023-05-11T09:07:06.698Z,13.83
2023-05-11T09:09:35.067Z,14.70
2023-05-11T09:12:03.909Z,14.77
2023-05-11T09:14:32.250Z,15.13
2023-05-11T09:17:02.898Z,13.30
2023-05-11T09:19:31.142Z,12.87
2023-05-11T09:22:01.130Z,12.37
2023-05-11T09:24:29.397Z,12.07
2023-05-11T09:27:10.209Z,11.67
2023-05-11T09:29:38.420Z,12.43
2023-05-11T09:32:08.445Z,12.57
2023-05-11T09:37:17.875Z,12.87
2023-05-11T09:40:14.014Z,12.73
2023-05-11T09:42:35.286Z,12.50
2023-05-11T09:45:03.454Z,13.17
2023-05-11T09:47:40.396Z,13.00
2023-05-11T09:50:18.709Z,13.07
2023-05-11T09:52:53.971Z,13.67
2023-05-11T09:55:22.273Z,14.40
2023-05-11T09:57:55.446Z,14.13
2023-05-11T10:00:25.141Z,15.03
2023-05-11T10:03:05.712Z,13.93
2023-05-11T10:05:34.910Z,12.97
2023-05-11T10:08:03.941Z,13.80
2023-05-11T10:10:33.273Z,13.30
2023-05-11T10:13:02.727Z,13.50
2023-05-11T10:15:31.935Z,12.60
2023-05-11T10:18:01.527Z,12.47
2023-05-11T10:20:31.199Z,11.60
2023-05-11T10:22:59.421Z,11.23
2023-05-11T10:25:27.869Z,10.77
2023-05-11T10:27:57.199Z,11.00
2023-05-11T10:30:25.626Z,11.20
2023-05-11T10:32:54.121Z,10.80
2023-05-11T10:35:22.755Z,11.63
2023-05-11T10:37:52.583Z,11.67
2023-05-11T10:40:21.047Z,12.53
2023-05-11T10:42:57.156Z,12.70
2023-05-11T10:45:27.448Z,12.33
2023-05-11T10:48:13.490Z,13.07
2023-05-11T10:51:02.444Z,13.17
2023-05-11T10:53:45.272Z,13.67
2023-05-11T10:56:22.818Z,14.07
2023-05-11T10:59:01.059Z,14.97
2023-05-11T11:01:36.457Z,14.97
2023-05-11T11:04:06.557Z,14.53
2023-05-11T11:06:34.966Z,14.20
2023-05-11T11:09:05.423Z,14.43
2023-05-11T11:11:35.196Z,14.47
2023-05-11T11:14:05.843Z,12.97
2023-05-11T11:16:34.678Z,13.40
2023-05-11T11:19:21.733Z,12.23
2023-05-11T11:21:49.873Z,11.60
2023-05-11T11:24:32.966Z,11.23
2023-05-11T11:27:03.164Z,10.70
2023-05-11T11:29:31.517Z,10.37
2023-05-11T11:32:26.695Z,10.73
2023-05-11T11:34:55.034Z,9.67
2023-05-11T11:37:23.962Z,9.73
2023-05-11T11:40:00.324Z,9.57
2023-05-11T11:42:37.778Z,9.70
2023-05-11T11:45:24.666Z,8.73
2023-05-11T11:48:07.254Z,8.07
2023-05-11T11:50:35.586Z,7.50
2023-05-11T11:53:03.969Z,6.60
2023-05-11T11:55:48.796Z,7.13
2023-05-11T11:58:35.592Z,6.63
2023-05-11T12:01:05.439Z,7.10
2023-05-11T12:03:33.800Z,6.43
2023-05-11T12:06:02.772Z,6.93
2023-05-11T12:08:32.513Z,7.77
2023-05-11T12:11:01.081Z,7.13
2023-05-11T12:13:29.488Z,7.00
2023-05-11T12:16:10.820Z,7.00
2023-05-11T12:18:39.037Z,7.00
2023-05-11T12:21:07.311Z,7.17
2023-05-11T12:23:35.865Z,7.97
2023-05-11T12:26:04.161Z,8.30
2023-05-11T12:28:32.344Z,9.50
2023-05-11T12:31:00.988Z,12.93
2023-05-11T12:33:30.619Z,14.80
2023-05-11T12:35:58.932Z,14.07
2023-05-11T12:38:27.668Z,13.03
2023-05-11T12:40:55.842Z,12.77
2023-05-11T12:43:24.648Z,11.87
2023-05-11T12:45:52.908Z,11.93
2023-05-11T12:48:21.290Z,11.17
2023-05-11T12:50:50.770Z,10.93
2023-05-11T12:53:19.710Z,12.37
2023-05-11T12:55:58.617Z,11.63
2023-05-11T12:58:26.837Z,10.90
2023-05-11T13:00:55.851Z,11.37
2023-05-11T13:03:24.291Z,11.00
2023-05-11T13:05:54.284Z,10.63
2023-05-11T13:08:23.607Z,10.80
2023-05-11T13:10:51.805Z,10.10
2023-05-11T13:13:28.980Z,10.13
2023-05-11T13:15:57.360Z,11.30
2023-05-11T13:18:25.639Z,10.67
2023-05-11T13:21:07.632Z,9.90
2023-05-11T13:23:36.932Z,10.53
2023-05-11T13:26:05.198Z,10.50
2023-05-11T13:28:35.402Z,11.07
2023-05-11T13:31:03.746Z,10.77
2023-05-11T13:33:32.099Z,11.03
2023-05-11T13:36:00.329Z,11.97
2023-05-11T13:38:29.865Z,12.40
2023-05-11T13:40:58.057Z,13.47
2023-05-11T13:43:26.272Z,12.97
2023-05-11T13:45:54.482Z,14.90
2023-05-11T13:48:22.720Z,14.83
2023-05-11T13:50:50.951Z,14.40
2023-05-11T13:53:19.154Z,11.63
2023-05-11T13:55:48.653Z,11.00
2023-05-11T13:58:17.861Z,10.10
2023-05-11T14:00:56.487Z,10.50
2023-05-11T14:03:35.357Z,10.97
2023-05-11T14:06:04.631Z,10.13
2023-05-11T14:08:32.797Z,9.27
2023-05-11T14:11:02.371Z,10.80
2023-05-11T14:13:30.547Z,12.23
2023-05-11T14:15:58.724Z,10.63
2023-05-11T14:18:27.302Z,10.83
2023-05-11T14:20:55.652Z,10.60
2023-05-11T14:23:24.022Z,8.60
2023-05-11T14:25:52.192Z,9.53
2023-05-11T14:28:21.861Z,9.33
2023-05-11T14:30:50.102Z,9.90
2023-05-11T14:33:18.375Z,8.77
2023-05-11T14:35:46.709Z,8.13
2023-05-11T14:38:14.897Z,6.00
2023-05-11T14:40:43.106Z,5.57
2023-05-11T14:43:11.310Z,5.30
2023-05-11T14:45:40.825Z,4.23
2023-05-11T14:48:09.285Z,5.40
2023-05-11T14:50:37.534Z,4.60
2023-05-11T14:53:05.833Z,4.40
2023-05-11T14:55:34.047Z,6.10
2023-05-11T14:58:04.071Z,5.87
2023-05-11T15:00:32.767Z,6.07
2023-05-11T15:03:02.353Z,6.50
2023-05-11T15:05:30.593Z,6.23
2023-05-11T15:07:59.790Z,6.23
2023-05-11T15:10:28.210Z,6.00
2023-05-11T15:12:56.433Z,5.97
2023-05-11T15:15:24.673Z,6.17
2023-05-11T15:17:52.849Z,5.90
2023-05-11T15:20:22.344Z,6.10
2023-05-11T15:22:50.442Z,5.73
2023-05-11T15:25:18.918Z,5.30
2023-05-11T15:27:47.346Z,5.40
2023-05-11T15:30:16.077Z,5.40
2023-05-11T15:32:44.309Z,5.00
2023-05-11T15:35:12.514Z,5.50
2023-05-11T15:37:42.003Z,5.83
2023-05-11T15:40:10.922Z,5.40
2023-05-11T15:42:39.138Z,4.77
2023-05-11T15:45:07.833Z,4.77
2023-05-11T15:47:36.282Z,4.47
2023-05-11T15:50:04.509Z,4.23
2023-05-11T15:52:32.684Z,4.20
2023-05-11T15:55:02.193Z,4.53
2023-05-11T15:57:30.399Z,4.83
2023-05-11T15:59:58.539Z,4.70
2023-05-11T16:02:26.797Z,4.45
2023-05-11T16:04:54.983Z,4.67
2023-05-11T16:07:23.171Z,5.20
2023-05-11T16:09:51.432Z,5.53
2023-05-11T16:12:20.886Z,5.40
2023-05-11T16:14:49.180Z,4.87
2023-05-11T16:17:17.429Z,5.80
2023-05-11T16:19:45.684Z,5.40
2023-05-11T16:22:13.872Z,5.50
2023-05-11T16:24:42.150Z,5.37
2023-05-11T16:27:10.313Z,4.30
2023-05-11T16:29:39.891Z,4.90
2023-05-11T16:32:08.226Z,4.93
2023-05-11T16:34:36.427Z,4.93
2023-05-11T16:37:04.667Z,4.60
2023-05-11T16:39:32.919Z,4.40
2023-05-11T16:42:01.131Z,4.67
2023-05-11T16:44:29.353Z,5.63
2023-05-11T16:46:59.855Z,5.20
2023-05-11T16:49:28.151Z,4.90
2023-05-11T16:51:57.048Z,4.67
2023-05-11T16:54:26.237Z,4.33
2023-05-11T16:56:55.314Z,4.50
2023-05-11T16:59:23.708Z,4.60
2023-05-11T17:01:51.877Z,4.93
2023-05-11T17:04:21.490Z,4.47
2023-05-11T17:06:49.729Z,4.40
2023-05-11T17:09:17.883Z,4.30
2023-05-11T17:11:46.170Z,4.40
2023-05-11T17:14:14.397Z,3.80
2023-05-11T17:16:42.879Z,3.50
2023-05-11T17:19:11.726Z,3.60
2023-05-11T17:21:41.305Z,3.70
2023-05-11T17:24:09.692Z,3.10
2023-05-11T17:26:46.985Z,2.87
2023-05-11T17:29:16.451Z,2.77
2023-05-11T17:31:46.633Z,3.10
2023-05-11T17:34:15.025Z,3.60
2023-05-11T17:36:44.756Z,4.03
2023-05-11T17:39:13.668Z,4.13
2023-05-11T17:41:41.864Z,4.30
2023-05-11T17:44:10.079Z,4.60
2023-05-11T17:46:39.100Z,4.73
2023-05-11T17:49:08.002Z,5.57
2023-05-11T17:51:36.358Z,6.17
2023-05-11T17:54:06.008Z,5.80
2023-05-11T17:56:34.657Z,5.50
2023-05-11T17:59:03.308Z,6.17
2023-05-11T18:01:31.626Z,6.57
2023-05-11T18:03:59.929Z,6.30
2023-05-11T18:06:29.000Z,6.27
2023-05-11T18:08:57.216Z,6.60
2023-05-11T18:11:27.130Z,7.00
2023-05-11T18:13:55.567Z,6.40
2023-05-11T18:16:23.733Z,6.70
2023-05-11T18:18:52.032Z,6.77
2023-05-11T18:21:20.269Z,7.40
2023-05-11T18:23:48.447Z,6.90
2023-05-11T18:26:17.974Z,7.20
2023-05-11T18:28:48.181Z,7.80
2023-05-11T18:31:18.757Z,7.60
2023-05-11T18:33:47.374Z,6.80
2023-05-11T18:36:15.781Z,7.53
2023-05-11T18:38:43.949Z,7.10
2023-05-11T18:41:12.387Z,7.67
2023-05-11T18:43:40.516Z,6.63
2023-05-11T18:46:10.298Z,6.70
2023-05-11T18:48:38.956Z,7.00
2023-05-11T18:51:07.463Z,6.50
2023-05-11T18:53:35.574Z,6.60
2023-05-11T18:56:03.728Z,6.77
2023-05-11T18:58:32.242Z,6.73
2023-05-11T19:01:00.429Z,6.43
2023-05-11T19:03:31.790Z,6.40
2023-05-11T19:06:01.485Z,6.47
2023-05-11T19:08:29.692Z,6.60
2023-05-11T19:10:57.972Z,6.83
2023-05-11T19:13:26.182Z,6.97
2023-05-11T19:15:54.311Z,6.93
2023-05-11T19:18:22.825Z,7.60
2023-05-11T19:20:52.359Z,6.87
2023-05-11T19:23:20.963Z,6.77
2023-05-11T19:25:49.385Z,7.10
2023-05-11T19:28:17.524Z,6.50
2023-05-11T19:30:45.815Z,6.43
2023-05-11T19:33:14.133Z,6.30
2023-05-11T19:35:42.432Z,5.90
2023-05-11T19:38:11.958Z,6.03
2023-05-11T19:40:46.019Z,5.27
2023-05-11T19:43:14.748Z,5.47
2023-05-11T19:45:43.563Z,5.30
2023-05-11T19:48:11.959Z,5.60
2023-05-11T19:50:40.226Z,6.37
2023-05-11T19:53:08.556Z,6.20
2023-05-11T19:55:38.148Z,6.50
2023-05-11T19:58:06.922Z,6.63
2023-05-11T20:00:35.218Z,7.70
2023-05-11T20:03:03.732Z,7.00
2023-05-11T20:05:31.994Z,8.70
2023-05-11T20:08:00.477Z,8.43
2023-05-11T20:10:28.758Z,9.93
2023-05-11T20:12:59.447Z,9.73
2023-05-11T20:15:27.810Z,10.00
2023-05-11T20:17:56.018Z,9.93
2023-05-11T20:20:24.489Z,10.87
2023-05-11T20:22:52.926Z,10.77
2023-05-11T20:25:21.534Z,9.93
2023-05-11T20:27:49.675Z,10.67
2023-05-11T20:30:19.654Z,10.47
2023-05-11T20:35:19.781Z,9.87
2023-05-11T20:37:48.260Z,9.90
2023-05-11T20:40:17.042Z,10.37
2023-05-11T20:42:45.450Z,9.90
2023-05-11T20:45:13.780Z,10.60
2023-05-11T20:47:43.551Z,10.73
2023-05-11T20:50:12.408Z,10.53
2023-05-11T20:52:40.605Z,11.10
2023-05-11T20:55:09.304Z,11.07
2023-05-11T20:57:37.469Z,11.87
2023-05-11T21:00:07.441Z,11.50
2023-05-11T21:02:35.968Z,12.27
2023-05-11T21:05:05.971Z,12.37
2023-05-11T21:07:34.392Z,12.60
2023-05-11T21:10:02.836Z,14.00
2023-05-11T21:12:31.696Z,14.00
2023-05-11T21:14:59.945Z,15.27
2023-05-11T21:17:28.130Z,15.07
2023-05-11T21:19:56.438Z,14.90
2023-05-11T21:22:25.908Z,15.73
2023-05-11T21:24:54.100Z,15.03
2023-05-11T21:27:22.243Z,15.63
2023-05-11T21:29:50.907Z,16.43
2023-05-11T21:32:19.101Z,16.80
2023-05-11T21:34:47.274Z,16.77
2023-05-11T21:37:15.866Z,17.93
2023-05-11T21:39:45.686Z,18.87
2023-05-11T21:42:13.880Z,17.17
2023-05-11T21:44:42.094Z,16.80
2023-05-11T21:47:10.246Z,19.50
2023-05-11T21:49:38.434Z,19.27
2023-05-11T21:52:06.932Z,18.10
2023-05-11T21:54:35.125Z,17.93
2023-05-11T21:57:04.728Z,16.93
2023-05-11T21:59:32.927Z,16.73
2023-05-11T22:02:01.566Z,15.97
2023-05-11T22:04:30.526Z,17.17
2023-05-11T22:07:01.234Z,16.93
2023-05-11T22:09:31.359Z,16.57
2023-05-11T22:11:59.516Z,17.40
2023-05-11T22:14:28.986Z,19.67
2023-05-11T22:16:57.357Z,18.47
2023-05-11T22:19:26.116Z,17.87
2023-05-11T22:21:54.368Z,18.33
2023-05-11T22:24:23.089Z,16.93
2023-05-11T22:26:51.441Z,14.93
2023-05-11T22:29:19.596Z,15.47
2023-05-11T22:31:49.895Z,14.50
2023-05-11T22:34:18.074Z,13.63
2023-05-11T22:36:46.478Z,14.27
2023-05-11T22:39:14.884Z,12.03
2023-05-11T22:41:42.997Z,12.57
2023-05-11T22:44:11.098Z,12.33
2023-05-11T22:46:39.315Z,12.03
2023-05-11T22:49:09.031Z,11.40
2023-05-11T22:51:37.220Z,11.23
2023-05-11T22:54:05.522Z,11.07
2023-05-11T22:56:33.680Z,10.33
2023-05-11T22:59:01.854Z,11.17
2023-05-11T23:01:30.227Z,10.37
2023-05-11T23:03:58.390Z,9.77
2023-05-11T23:06:27.877Z,10.23
2023-05-11T23:08:56.039Z,10.13
2023-05-11T23:11:24.151Z,10.20
2023-05-11T23:13:52.305Z,9.83
2023-05-11T23:16:20.482Z,9.77
2023-05-11T23:18:48.825Z,8.57
2023-05-11T23:21:17.775Z,9.07
2023-05-11T23:23:47.276Z,9.13
2023-05-11T23:26:15.418Z,7.90
2023-05-11T23:28:44.439Z,8.77
2023-05-11T23:31:12.666Z,8.40
2023-05-11T23:33:40.852Z,9.23
2023-05-11T23:36:09.592Z,8.53
2023-05-11T23:38:37.788Z,8.27
2023-05-11T23:41:07.271Z,7.97
2023-05-11T23:43:35.404Z,7.50
2023-05-11T23:46:03.523Z,8.30
2023-05-11T23:48:31.678Z,7.87
2023-05-11T23:50:59.800Z,8.07
2023-05-11T23:53:27.958Z,7.80
2023-05-11T23:55:56.182Z,7.20
2023-05-11T23:58:25.661Z,7.33
